Time;durP1;ratioP1;P1;durP2;ratioP2;P2;SDS_P1;SDS_P2;PMS_P1;PMS_P2;Temp;Humidity;BMP_temperature;BMP_pressure;BME280_temperature;BME280_humidity;BME280_pressure;Samples;Min_cycle;Max_cycle;Signal;HPM_P1;HPM_P2
2022/01/13 00:01:43;;;;;;;1.87;1.70;;;;;;;;;;5067081;28;20207;-69
2022/01/13 00:04:12;;;;;;;2.03;1.53;;;;;;;;;;5067886;28;20202;-70
2022/01/13 00:06:41;;;;;;;1.17;1.17;;;;;;;;;;5069127;28;20213;-68
2022/01/13 00:09:08;;;;;;;1.63;1.53;;;;;;;;;;5067066;28;20234;-68
2022/01/13 00:11:36;;;;;;;5.43;1.47;;;;;;;;;;5067986;28;20256;-68
2022/01/13 00:17:09;;;;;;;0.73;0.73;;;;;;;;;;5069274;28;20205;-69
2022/01/13 00:19:48;;;;;;;0.17;0.17;;;;;;;;;;5069140;28;20198;-70
2022/01/13 00:22:24;;;;;;;0.60;0.60;;;;;;;;;;5067054;28;20195;-68
2022/01/13 00:24:55;;;;;;;0.00;0.00;;;;;;;;;;5069026;28;20344;-69
2022/01/13 00:27:24;;;;;;;0.00;0.00;;;;;;;;;;5068761;28;20227;-69
2022/01/13 00:29:55;;;;;;;0.00;0.00;;;;;;;;;;5069260;28;20194;-67
2022/01/13 00:32:25;;;;;;;0.00;0.00;;;;;;;;;;5066192;28;20199;-67
2022/01/13 00:34:53;;;;;;;0.00;0.00;;;;;;;;;;5060433;28;20200;-68
2022/01/13 00:37:21;;;;;;;0.60;0.50;;;;;;;;;;5059954;28;20199;-67
2022/01/13 00:39:49;;;;;;;0.00;0.00;;;;;;;;;;5069157;28;20209;-69
2022/01/13 00:42:16;;;;;;;0.40;0.40;;;;;;;;;;5067785;28;20646;-69
2022/01/13 00:44:45;;;;;;;0.67;0.67;;;;;;;;;;5068834;28;20203;-69
2022/01/13 00:47:13;;;;;;;0.40;0.40;;;;;;;;;;5068834;28;20203;-68
2022/01/13 00:49:40;;;;;;;1.70;1.40;;;;;;;;;;5068035;28;20206;-68
2022/01/13 00:52:07;;;;;;;2.80;2.60;;;;;;;;;;5065675;28;20206;-69
2022/01/13 00:54:36;;;;;;;1.93;1.83;;;;;;;;;;5069328;28;20202;-69
2022/01/13 00:57:04;;;;;;;3.33;3.00;;;;;;;;;;5063882;28;20207;-69
2022/01/13 00:59:32;;;;;;;0.50;0.50;;;;;;;;;;5068873;28;20637;-69
2022/01/13 01:02:00;;;;;;;0.63;0.63;;;;;;;;;;5063743;28;20278;-68
2022/01/13 01:04:27;;;;;;;5.10;2.43;;;;;;;;;;5051963;28;20248;-69
2022/01/13 01:06:54;;;;;;;1.83;1.43;;;;;;;;;;5068327;28;20206;-69
2022/01/13 01:09:31;;;;;;;5.30;4.57;;;;;;;;;;5067784;28;20237;-68
2022/01/13 01:12:00;;;;;;;3.77;2.63;;;;;;;;;;5067149;28;20578;-68
2022/01/13 01:14:31;;;;;;;4.33;3.53;;;;;;;;;;5068787;28;20227;-68
2022/01/13 01:16:59;;;;;;;1.60;1.17;;;;;;;;;;5067460;28;20205;-69
2022/01/13 01:19:28;;;;;;;1.03;0.83;;;;;;;;;;5076505;28;20559;-68
2022/01/13 01:22:30;;;;;;;0.00;0.00;;;;;;;;;;5083001;28;20677;-68
2022/01/13 01:25:17;;;;;;;0.70;0.70;;;;;;;;;;5049089;28;20290;-69
2022/01/13 01:27:50;;;;;;;0.57;0.57;;;;;;;;;;5060828;28;20778;-69
2022/01/13 01:30:28;;;;;;;9.47;4.50;;;;;;;;;;5068842;28;20205;-69
2022/01/13 01:32:55;;;;;;;15.63;4.23;;;;;;;;;;5065424;28;20656;-68
2022/01/13 01:35:26;;;;;;;0.10;0.10;;;;;;;;;;5068927;28;20678;-69
2022/01/13 01:37:53;;;;;;;2.47;1.93;;;;;;;;;;5067188;28;20191;-68
2022/01/13 01:40:21;;;;;;;2.30;1.90;;;;;;;;;;5067979;28;20202;-69
2022/01/13 01:42:50;;;;;;;1.87;0.77;;;;;;;;;;5065451;28;20214;-70
2022/01/13 01:45:19;;;;;;;0.67;0.67;;;;;;;;;;5068553;28;20613;-68
2022/01/13 01:47:50;;;;;;;3.43;2.00;;;;;;;;;;5065195;28;20234;-68
2022/01/13 01:50:20;;;;;;;0.00;0.00;;;;;;;;;;5067941;28;20199;-68
2022/01/13 01:52:48;;;;;;;0.20;0.20;;;;;;;;;;5066812;28;20210;-68
2022/01/13 01:55:16;;;;;;;0.30;0.30;;;;;;;;;;5067796;28;20199;-68
2022/01/13 01:57:44;;;;;;;3.17;2.27;;;;;;;;;;5052267;28;20191;-68
2022/01/13 02:00:15;;;;;;;8.40;4.97;;;;;;;;;;5049441;28;20743;-68
2022/01/13 02:02:43;;;;;;;3.60;2.57;;;;;;;;;;5063703;28;20199;-68
2022/01/13 02:05:11;;;;;;;0.10;0.10;;;;;;;;;;5065908;28;20197;-70
2022/01/13 02:07:39;;;;;;;0.20;0.20;;;;;;;;;;5067913;28;20202;-68
2022/01/13 02:10:07;;;;;;;0.00;0.00;;;;;;;;;;5070763;28;20198;-68
2022/01/13 02:12:37;;;;;;;3.53;1.47;;;;;;;;;;5070774;28;20237;-68
2022/01/13 02:15:28;;;;;;;5.00;3.10;;;;;;;;;;5071287;28;20282;-69
2022/01/13 02:17:57;;;;;;;2.27;2.13;;;;;;;;;;5071333;28;20679;-69
2022/01/13 02:20:41;;;;;;;7.50;6.80;;;;;;;;;;5087717;28;20210;-68
2022/01/13 02:23:08;;;;;;;3.33;3.03;;;;;;;;;;5071011;28;20206;-71
2022/01/13 02:25:36;;;;;;;0.10;0.10;;;;;;;;;;5071332;28;20203;-70
2022/01/13 02:28:04;;;;;;;0.00;0.00;;;;;;;;;;5070165;28;20222;-68
2022/01/13 02:30:31;;;;;;;0.00;0.00;;;;;;;;;;5072087;28;20278;-69
2022/01/13 02:32:58;;;;;;;1.50;1.40;;;;;;;;;;5069420;28;20690;-69
2022/01/13 02:35:35;;;;;;;0.07;0.07;;;;;;;;;;5070568;28;20199;-69
2022/01/13 02:38:02;;;;;;;0.00;0.00;;;;;;;;;;5070371;28;20195;-69
2022/01/13 02:40:30;;;;;;;0.00;0.00;;;;;;;;;;5070639;28;20195;-68
2022/01/13 02:42:57;;;;;;;0.37;0.37;;;;;;;;;;5069288;28;20659;-68
2022/01/13 02:45:32;;;;;;;0.33;0.33;;;;;;;;;;5069797;28;20195;-68
2022/01/13 02:48:13;;;;;;;14.07;8.30;;;;;;;;;;5070219;28;20228;-69
2022/01/13 02:50:42;;;;;;;1.03;1.03;;;;;;;;;;5059411;28;20235;-69
2022/01/13 02:53:10;;;;;;;0.37;0.37;;;;;;;;;;5070473;28;20195;-69
2022/01/13 02:55:37;;;;;;;0.00;0.00;;;;;;;;;;5070307;28;20659;-69
2022/01/13 02:58:05;;;;;;;0.07;0.07;;;;;;;;;;5070216;28;20194;-70
2022/01/13 03:00:32;;;;;;;0.00;0.00;;;;;;;;;;5070993;28;20199;-69
2022/01/13 03:03:00;;;;;;;0.83;0.83;;;;;;;;;;5070698;28;20202;-70
2022/01/13 03:05:27;;;;;;;0.83;0.83;;;;;;;;;;5069931;28;20233;-70
2022/01/13 03:07:56;;;;;;;0.30;0.30;;;;;;;;;;5069092;28;20311;-67
2022/01/13 03:10:23;;;;;;;0.00;0.00;;;;;;;;;;5069482;28;20197;-67
2022/01/13 03:12:51;;;;;;;0.30;0.30;;;;;;;;;;5069852;28;20237;-70
2022/01/13 03:15:18;;;;;;;7.37;3.43;;;;;;;;;;5070009;28;20232;-70
2022/01/13 03:17:45;;;;;;;0.00;0.00;;;;;;;;;;5070068;28;20655;-69
2022/01/13 03:20:13;;;;;;;0.00;0.00;;;;;;;;;;5080253;28;20710;-70
2022/01/13 03:22:41;;;;;;;1.93;1.70;;;;;;;;;;5070056;28;20211;-70
2022/01/13 03:25:10;;;;;;;0.10;0.10;;;;;;;;;;5068418;28;20281;-69
2022/01/13 03:27:38;;;;;;;9.73;4.03;;;;;;;;;;5069519;28;20207;-69
2022/01/13 03:30:06;;;;;;;0.00;0.00;;;;;;;;;;5069638;28;20734;-67
2022/01/13 03:32:34;;;;;;;2.10;2.00;;;;;;;;;;5068410;28;20206;-69
2022/01/13 03:35:02;;;;;;;0.60;0.60;;;;;;;;;;5068648;28;20226;-70
2022/01/13 03:37:30;;;;;;;5.37;2.23;;;;;;;;;;5068866;28;20203;-68
2022/01/13 03:39:58;;;;;;;1.53;1.30;;;;;;;;;;5068573;28;20203;-70
2022/01/13 03:42:27;;;;;;;0.30;0.30;;;;;;;;;;5068370;28;20221;-69
2022/01/13 03:44:55;;;;;;;0.00;0.00;;;;;;;;;;5066842;28;20867;-70
2022/01/13 03:47:23;;;;;;;0.00;0.00;;;;;;;;;;5068443;28;20203;-69
2022/01/13 03:49:51;;;;;;;0.57;0.53;;;;;;;;;;5068083;28;20226;-68
2022/01/13 03:52:48;;;;;;;5.47;4.57;;;;;;;;;;5069938;28;20281;-68
2022/01/13 03:55:34;;;;;;;2.83;2.57;;;;;;;;;;5069022;28;20188;-69
2022/01/13 03:58:34;;;;;;;0.47;0.47;;;;;;;;;;5069370;28;20203;-69
2022/01/13 04:01:20;;;;;;;3.70;0.67;;;;;;;;;;5062947;28;20213;-69
2022/01/13 04:03:49;;;;;;;0.00;0.00;;;;;;;;;;5070404;28;20667;-68
2022/01/13 04:06:31;;;;;;;1.80;1.70;;;;;;;;;;5068403;28;20206;-69
2022/01/13 04:08:59;;;;;;;3.90;3.60;;;;;;;;;;5066719;28;20584;-71
2022/01/13 04:11:27;;;;;;;1.30;0.43;;;;;;;;;;5069222;28;20199;-69
2022/01/13 04:13:57;;;;;;;3.47;3.20;;;;;;;;;;5069853;28;20242;-69
2022/01/13 04:16:27;;;;;;;0.20;0.10;;;;;;;;;;5068587;28;20203;-69
2022/01/13 04:18:59;;;;;;;0.83;0.83;;;;;;;;;;5069293;28;20298;-69
2022/01/13 04:21:26;;;;;;;0.00;0.00;;;;;;;;;;5069599;28;20282;-69
2022/01/13 04:23:57;;;;;;;0.23;0.23;;;;;;;;;;5069861;28;20195;-69
2022/01/13 04:26:28;;;;;;;1.07;1.00;;;;;;;;;;5068620;28;20627;-68
2022/01/13 04:29:02;;;;;;;0.00;0.00;;;;;;;;;;5067909;28;20226;-69
2022/01/13 04:31:30;;;;;;;0.40;0.40;;;;;;;;;;5069603;28;20614;-68
2022/01/13 04:33:59;;;;;;;1.17;1.17;;;;;;;;;;5067906;28;20206;-68
2022/01/13 04:36:26;;;;;;;0.00;0.00;;;;;;;;;;5069278;28;20207;-68
2022/01/13 04:38:53;;;;;;;1.37;1.33;;;;;;;;;;5069801;28;20195;-69
2022/01/13 04:41:29;;;;;;;1.33;1.23;;;;;;;;;;5068595;28;20206;-70
2022/01/13 04:43:57;;;;;;;0.40;0.40;;;;;;;;;;5068763;28;20209;-69
2022/01/13 04:46:24;;;;;;;1.60;1.13;;;;;;;;;;5059681;28;20210;-68
2022/01/13 04:48:52;;;;;;;0.00;0.00;;;;;;;;;;5056553;28;20226;-68
2022/01/13 04:51:21;;;;;;;0.00;0.00;;;;;;;;;;5056808;28;20514;-67
2022/01/13 04:53:48;;;;;;;1.23;1.07;;;;;;;;;;5068445;28;20694;-70
2022/01/13 04:56:27;;;;;;;1.13;1.03;;;;;;;;;;5067308;28;20191;-67
2022/01/13 04:58:55;;;;;;;0.27;0.27;;;;;;;;;;5068840;28;20221;-67
2022/01/13 05:01:22;;;;;;;2.27;1.37;;;;;;;;;;5065748;28;20199;-67
2022/01/13 05:03:50;;;;;;;0.53;0.53;;;;;;;;;;5066927;28;20202;-67
2022/01/13 05:06:19;;;;;;;0.67;0.67;;;;;;;;;;5060634;28;20562;-69
2022/01/13 05:08:48;;;;;;;4.23;2.47;;;;;;;;;;5048946;28;20227;-68
2022/01/13 05:11:15;;;;;;;0.50;0.30;;;;;;;;;;5048823;28;20196;-69
2022/01/13 05:13:42;;;;;;;2.37;2.13;;;;;;;;;;5049018;28;20231;-67
2022/01/13 05:16:18;;;;;;;3.00;1.57;;;;;;;;;;5049263;28;20205;-67
2022/01/13 05:18:51;;;;;;;1.70;1.20;;;;;;;;;;5071562;28;20675;-67
2022/01/13 05:21:22;;;;;;;0.20;0.20;;;;;;;;;;5080763;28;20214;-68
2022/01/13 05:23:52;;;;;;;0.43;0.43;;;;;;;;;;5069310;28;20218;-67
2022/01/13 05:26:20;;;;;;;2.07;1.97;;;;;;;;;;5067343;28;20256;-68
2022/01/13 05:28:48;;;;;;;0.73;0.73;;;;;;;;;;5068256;28;20498;-67
2022/01/13 05:31:15;;;;;;;2.10;1.70;;;;;;;;;;5068840;28;20194;-69
2022/01/13 05:33:43;;;;;;;0.90;0.90;;;;;;;;;;5068947;28;20195;-67
2022/01/13 05:36:12;;;;;;;0.00;0.00;;;;;;;;;;5067796;28;20210;-69
2022/01/13 05:38:42;;;;;;;0.50;0.50;;;;;;;;;;5069170;28;20891;-67
2022/01/13 05:41:11;;;;;;;1.47;1.40;;;;;;;;;;5068609;28;20194;-69
2022/01/13 05:43:38;;;;;;;5.50;5.07;;;;;;;;;;5069248;28;20214;-69
2022/01/13 05:46:06;;;;;;;0.47;0.47;;;;;;;;;;5069707;28;20206;-70
2022/01/13 05:48:33;;;;;;;1.50;0.83;;;;;;;;;;5063126;28;20198;-69
2022/01/13 05:51:01;;;;;;;1.23;1.23;;;;;;;;;;5068923;28;20498;-68
2022/01/13 05:53:29;;;;;;;2.37;1.40;;;;;;;;;;5066637;28;20208;-67
2022/01/13 05:55:56;;;;;;;0.00;0.00;;;;;;;;;;5052441;28;20203;-69
2022/01/13 05:58:25;;;;;;;6.33;2.03;;;;;;;;;;5067768;28;20194;-70
2022/01/13 06:00:52;;;;;;;1.63;0.17;;;;;;;;;;5069484;28;20664;-69
2022/01/13 06:03:20;;;;;;;0.50;0.50;;;;;;;;;;5072234;28;20197;-69
2022/01/13 06:05:47;;;;;;;2.07;1.37;;;;;;;;;;5068932;28;20753;-68
2022/01/13 06:08:14;;;;;;;2.90;2.70;;;;;;;;;;5071724;28;20222;-69
2022/01/13 06:10:45;;;;;;;0.93;0.93;;;;;;;;;;5069458;28;20230;-68
2022/01/13 06:13:13;;;;;;;1.60;1.07;;;;;;;;;;5065299;28;20236;-70
2022/01/13 06:15:41;;;;;;;3.50;3.20;;;;;;;;;;5067982;28;20202;-69
2022/01/13 06:18:12;;;;;;;2.80;2.23;;;;;;;;;;5072399;28;20199;-68
2022/01/13 06:20:39;;;;;;;3.00;1.47;;;;;;;;;;5069477;28;20222;-70
2022/01/13 06:23:08;;;;;;;0.27;0.27;;;;;;;;;;5072028;28;20203;-67
2022/01/13 06:25:36;;;;;;;1.90;1.40;;;;;;;;;;5071879;28;20706;-67
2022/01/13 06:28:04;;;;;;;0.70;0.70;;;;;;;;;;5071268;28;20195;-69
2022/01/13 06:30:31;;;;;;;0.23;0.23;;;;;;;;;;5070333;28;20784;-68
2022/01/13 06:33:01;;;;;;;0.90;0.90;;;;;;;;;;5071657;28;20257;-68
2022/01/13 06:35:29;;;;;;;1.27;1.23;;;;;;;;;;5070648;28;20286;-68
2022/01/13 06:37:56;;;;;;;0.30;0.30;;;;;;;;;;5071275;28;20645;-68
2022/01/13 06:40:24;;;;;;;0.27;0.27;;;;;;;;;;5069883;28;21438;-69
2022/01/13 06:42:52;;;;;;;0.30;0.30;;;;;;;;;;5071445;28;20221;-69
2022/01/13 06:45:19;;;;;;;4.17;1.60;;;;;;;;;;5071418;28;20226;-68
2022/01/13 06:47:47;;;;;;;2.13;2.03;;;;;;;;;;5069186;28;20199;-70
2022/01/13 06:50:16;;;;;;;0.63;0.63;;;;;;;;;;5065521;28;20222;-68
2022/01/13 06:52:46;;;;;;;1.83;1.73;;;;;;;;;;5071488;28;20195;-68
2022/01/13 06:55:14;;;;;;;7.43;3.20;;;;;;;;;;5054577;28;20724;-70
2022/01/13 06:57:42;;;;;;;3.90;2.23;;;;;;;;;;5071125;28;20194;-69
2022/01/13 07:00:10;;;;;;;2.03;1.93;;;;;;;;;;5069421;28;20214;-68
2022/01/13 07:02:37;;;;;;;0.80;0.80;;;;;;;;;;5070899;28;20769;-67
2022/01/13 07:05:05;;;;;;;2.83;1.30;;;;;;;;;;5070343;28;20282;-68
2022/01/13 07:07:35;;;;;;;0.83;0.63;;;;;;;;;;5071333;28;20599;-67
2022/01/13 07:10:02;;;;;;;0.43;0.23;;;;;;;;;;5070228;28;20268;-68
2022/01/13 07:12:30;;;;;;;3.30;2.63;;;;;;;;;;5064244;28;20233;-67
2022/01/13 07:14:57;;;;;;;1.30;1.13;;;;;;;;;;5063935;28;20195;-67
2022/01/13 07:17:25;;;;;;;0.70;0.70;;;;;;;;;;5062445;28;20282;-67
2022/01/13 07:19:52;;;;;;;0.00;0.00;;;;;;;;;;5061017;28;20206;-68
2022/01/13 07:22:20;;;;;;;2.73;1.80;;;;;;;;;;5062109;28;20198;-68
2022/01/13 07:24:49;;;;;;;0.50;0.50;;;;;;;;;;5063482;28;20248;-68
2022/01/13 07:27:16;;;;;;;2.17;1.27;;;;;;;;;;5062505;28;20199;-69
2022/01/13 07:29:44;;;;;;;1.70;0.73;;;;;;;;;;5060992;28;20231;-69
2022/01/13 07:32:11;;;;;;;2.47;1.77;;;;;;;;;;5060967;28;20552;-68
2022/01/13 07:34:39;;;;;;;12.33;3.63;;;;;;;;;;5060483;28;20203;-69
2022/01/13 07:37:07;;;;;;;2.87;1.23;;;;;;;;;;5060910;28;20581;-69
2022/01/13 07:39:35;;;;;;;5.10;2.17;;;;;;;;;;5060852;28;20728;-69
2022/01/13 12:14:47;;;;;;;0.10;0.10;;;;;;;;;;5086002;27;20998;-65
2022/01/13 12:17:26;;;;;;;0.53;0.53;;;;;;;;;;5080406;28;20680;-69
2022/01/13 12:20:02;;;;;;;2.03;1.93;;;;;;;;;;5084110;28;20202;-66
2022/01/13 12:22:50;;;;;;;0.17;0.17;;;;;;;;;;5077001;28;20298;-66
2022/01/13 12:25:21;;;;;;;0.00;0.00;;;;;;;;;;5083618;28;20205;-66
2022/01/13 12:27:50;;;;;;;0.53;0.53;;;;;;;;;;5085691;28;20596;-66
2022/01/13 12:30:20;;;;;;;0.00;0.00;;;;;;;;;;5082648;28;20655;-67
2022/01/13 12:32:48;;;;;;;0.00;0.00;;;;;;;;;;5080731;28;20208;-65
2022/01/13 12:35:17;;;;;;;0.73;0.73;;;;;;;;;;5085524;28;20201;-67
2022/01/13 12:37:45;;;;;;;2.03;1.90;;;;;;;;;;5083505;28;20208;-68
2022/01/13 12:40:14;;;;;;;0.10;0.10;;;;;;;;;;5085627;28;20198;-68
2022/01/13 12:42:50;;;;;;;0.30;0.30;;;;;;;;;;5084537;28;20218;-67
2022/01/13 12:45:29;;;;;;;0.00;0.00;;;;;;;;;;5085475;28;20284;-68
2022/01/13 12:47:58;;;;;;;0.00;0.00;;;;;;;;;;5085302;28;20570;-67
2022/01/13 12:50:27;;;;;;;0.67;0.67;;;;;;;;;;5085241;28;20206;-67
2022/01/13 12:52:57;;;;;;;1.93;1.03;;;;;;;;;;5075657;28;20195;-68
2022/01/13 12:55:25;;;;;;;0.30;0.30;;;;;;;;;;5076704;28;20198;-68
2022/01/13 12:57:54;;;;;;;0.20;0.20;;;;;;;;;;5082204;28;20199;-67
2022/01/13 13:00:24;;;;;;;4.60;2.90;;;;;;;;;;5079266;28;20205;-65
2022/01/13 13:02:53;;;;;;;5.57;1.77;;;;;;;;;;5080778;28;20230;-71
2022/01/13 13:05:35;;;;;;;0.13;0.13;;;;;;;;;;5082845;28;20198;-72
2022/01/13 13:08:03;;;;;;;0.73;0.73;;;;;;;;;;5080637;28;20667;-72
2022/01/13 13:10:30;;;;;;;0.67;0.67;;;;;;;;;;5081789;28;20749;-69
2022/01/13 13:12:59;;;;;;;0.50;0.50;;;;;;;;;;5080370;28;20266;-70
2022/01/13 13:15:43;;;;;;;2.20;1.30;;;;;;;;;;5084067;28;20202;-70
2022/01/13 13:18:11;;;;;;;0.00;0.00;;;;;;;;;;5080375;28;20198;-70
2022/01/13 13:20:39;;;;;;;3.00;1.13;;;;;;;;;;5083229;28;20221;-72
2022/01/13 13:23:10;;;;;;;0.83;0.83;;;;;;;;;;5080978;28;20238;-71
2022/01/13 13:25:38;;;;;;;1.70;1.60;;;;;;;;;;5072514;28;20214;-69
2022/01/13 13:28:19;;;;;;;0.37;0.37;;;;;;;;;;5066770;28;20505;-70
2022/01/13 13:30:48;;;;;;;0.40;0.23;;;;;;;;;;5070455;28;20210;-71
2022/01/13 13:33:16;;;;;;;0.93;0.93;;;;;;;;;;5066723;28;20203;-71
2022/01/13 13:35:43;;;;;;;0.07;0.07;;;;;;;;;;5069305;28;20214;-71
2022/01/13 13:38:14;;;;;;;0.00;0.00;;;;;;;;;;5068117;28;20567;-71
2022/01/13 13:40:44;;;;;;;0.30;0.30;;;;;;;;;;5069911;28;20238;-72
2022/01/13 13:43:13;;;;;;;1.87;1.73;;;;;;;;;;5067606;28;20229;-70
2022/01/13 13:45:40;;;;;;;4.87;3.07;;;;;;;;;;5068773;28;20286;-68
2022/01/13 13:48:09;;;;;;;0.00;0.00;;;;;;;;;;5070646;28;20234;-69
2022/01/13 13:50:37;;;;;;;0.20;0.20;;;;;;;;;;5066941;28;20266;-71
2022/01/13 13:53:05;;;;;;;3.13;2.87;;;;;;;;;;5068777;28;20198;-70
2022/01/13 13:55:33;;;;;;;1.20;0.90;;;;;;;;;;5067485;28;20241;-70
2022/01/13 13:58:00;;;;;;;0.00;0.00;;;;;;;;;;5067431;28;20203;-72
2022/01/13 14:00:28;;;;;;;3.10;2.93;;;;;;;;;;5068220;28;20195;-72
2022/01/13 14:02:57;;;;;;;2.47;2.27;;;;;;;;;;5068326;28;20597;-77
2022/01/13 14:05:37;;;;;;;1.30;0.83;;;;;;;;;;5068711;28;20564;-72
2022/01/13 14:08:09;;;;;;;1.83;1.40;;;;;;;;;;5068103;28;20668;-73
2022/01/13 14:10:37;;;;;;;3.30;1.73;;;;;;;;;;5063434;28;20213;-70
2022/01/13 14:13:05;;;;;;;1.43;1.33;;;;;;;;;;5068894;28;20225;-73
2022/01/13 14:15:34;;;;;;;0.20;0.20;;;;;;;;;;5067204;28;20203;-72
2022/01/13 14:18:12;;;;;;;0.20;0.20;;;;;;;;;;5068243;28;20711;-69
2022/01/13 14:20:42;;;;;;;1.83;1.73;;;;;;;;;;5069251;28;20199;-71
2022/01/13 14:23:10;;;;;;;0.57;0.57;;;;;;;;;;5068204;28;20203;-70
2022/01/13 14:25:39;;;;;;;2.90;2.33;;;;;;;;;;5068613;28;20210;-76
2022/01/13 14:28:07;;;;;;;0.53;0.53;;;;;;;;;;5068492;28;20203;-71
2022/01/13 14:30:36;;;;;;;4.10;3.80;;;;;;;;;;5069249;28;20880;-71
2022/01/13 14:33:17;;;;;;;1.63;1.37;;;;;;;;;;5062264;28;20579;-74
2022/01/13 14:35:47;;;;;;;1.23;1.23;;;;;;;;;;5064583;28;20194;-71
2022/01/13 14:38:15;;;;;;;2.47;2.23;;;;;;;;;;5066392;28;20199;-69
2022/01/13 14:40:43;;;;;;;0.93;0.93;;;;;;;;;;5060555;28;20206;-69
2022/01/13 14:43:18;;;;;;;3.20;2.43;;;;;;;;;;5061682;28;20206;-69
2022/01/13 14:45:48;;;;;;;2.87;1.87;;;;;;;;;;5064402;28;20598;-68
2022/01/13 14:48:15;;;;;;;4.37;3.07;;;;;;;;;;5065976;28;20203;-68
2022/01/13 14:50:43;;;;;;;0.67;0.67;;;;;;;;;;5060035;28;20214;-67
2022/01/13 14:53:12;;;;;;;4.20;1.90;;;;;;;;;;5066602;28;20203;-67
2022/01/13 14:55:39;;;;;;;0.20;0.20;;;;;;;;;;5062369;28;20226;-67
2022/01/13 14:58:06;;;;;;;1.10;0.50;;;;;;;;;;5067979;28;20199;-67
2022/01/13 15:00:34;;;;;;;3.60;3.30;;;;;;;;;;5066219;28;20207;-67
2022/01/13 15:03:01;;;;;;;4.50;2.80;;;;;;;;;;5067423;28;20206;-69
2022/01/13 15:05:28;;;;;;;1.97;1.80;;;;;;;;;;5067175;28;20678;-73
2022/01/13 15:07:56;;;;;;;0.10;0.10;;;;;;;;;;5066943;28;20199;-69
2022/01/13 15:10:24;;;;;;;1.40;1.30;;;;;;;;;;5068596;28;20207;-67
2022/01/13 15:12:52;;;;;;;2.13;2.03;;;;;;;;;;5064818;28;20235;-69
2022/01/13 15:15:19;;;;;;;0.00;0.00;;;;;;;;;;5065416;28;20202;-70
2022/01/13 15:17:47;;;;;;;0.00;0.00;;;;;;;;;;5066121;28;20218;-70
2022/01/13 15:20:14;;;;;;;0.10;0.10;;;;;;;;;;5067109;28;20209;-69
2022/01/13 15:22:42;;;;;;;0.37;0.37;;;;;;;;;;5062772;28;20206;-68
2022/01/13 15:25:10;;;;;;;0.10;0.10;;;;;;;;;;5063197;28;20241;-68
2022/01/13 15:27:39;;;;;;;0.00;0.00;;;;;;;;;;5063377;28;20272;-69
2022/01/13 15:30:07;;;;;;;1.03;0.73;;;;;;;;;;5066409;28;20198;-66
2022/01/13 15:32:35;;;;;;;3.80;2.90;;;;;;;;;;5065258;28;20281;-67
2022/01/13 15:35:02;;;;;;;0.83;0.83;;;;;;;;;;5064243;28;20198;-66
2022/01/13 15:37:30;;;;;;;0.60;0.60;;;;;;;;;;5064786;28;20199;-67
2022/01/13 15:39:57;;;;;;;1.23;1.20;;;;;;;;;;5061934;28;20199;-67
2022/01/13 15:42:24;;;;;;;0.60;0.50;;;;;;;;;;5064085;28;20603;-67
2022/01/13 15:44:53;;;;;;;0.00;0.00;;;;;;;;;;5064852;28;20231;-67
2022/01/13 15:47:21;;;;;;;0.47;0.47;;;;;;;;;;5061625;28;20195;-67
2022/01/13 15:49:48;;;;;;;0.53;0.53;;;;;;;;;;5060638;28;20206;-68
2022/01/13 15:52:15;;;;;;;0.67;0.67;;;;;;;;;;5064416;28;20205;-69
2022/01/13 15:54:43;;;;;;;0.17;0.17;;;;;;;;;;5061241;28;20203;-67
2022/01/13 15:57:10;;;;;;;0.33;0.33;;;;;;;;;;5066565;28;20209;-67
2022/01/13 15:59:38;;;;;;;0.00;0.00;;;;;;;;;;5065298;28;20195;-67
2022/01/13 16:02:07;;;;;;;1.40;1.17;;;;;;;;;;5066776;28;20195;-68
2022/01/13 16:04:34;;;;;;;2.13;1.60;;;;;;;;;;5061496;28;20202;-67
2022/01/13 16:07:02;;;;;;;0.33;0.33;;;;;;;;;;5066299;28;20674;-67
2022/01/13 16:09:29;;;;;;;0.73;0.73;;;;;;;;;;5061684;28;20676;-67
2022/01/13 16:11:56;;;;;;;0.83;0.70;;;;;;;;;;5064930;28;20207;-68
2022/01/13 16:14:24;;;;;;;1.77;1.67;;;;;;;;;;5059222;28;20226;-67
2022/01/13 16:16:52;;;;;;;0.70;0.47;;;;;;;;;;5067123;28;20221;-68
2022/01/13 16:19:21;;;;;;;0.77;0.77;;;;;;;;;;5068214;28;20889;-69
2022/01/13 16:21:48;;;;;;;0.10;0.10;;;;;;;;;;5063456;28;20210;-69
2022/01/13 16:24:16;;;;;;;0.47;0.47;;;;;;;;;;5063400;28;20192;-68
2022/01/13 16:26:43;;;;;;;0.10;0.10;;;;;;;;;;5063552;28;20202;-68
2022/01/13 16:29:31;;;;;;;1.30;0.60;;;;;;;;;;5065274;28;20207;-68
2022/01/13 16:31:58;;;;;;;0.00;0.00;;;;;;;;;;5064514;28;20245;-69
2022/01/13 16:34:27;;;;;;;0.30;0.30;;;;;;;;;;5060576;28;20231;-68
2022/01/13 16:36:54;;;;;;;0.00;0.00;;;;;;;;;;5066063;28;20202;-68
2022/01/13 16:39:22;;;;;;;0.50;0.30;;;;;;;;;;5062800;28;20187;-67
2022/01/13 16:41:49;;;;;;;2.73;1.70;;;;;;;;;;5058314;28;20199;-68
2022/01/13 16:44:18;;;;;;;0.00;0.00;;;;;;;;;;5065511;28;20214;-66
2022/01/13 16:46:45;;;;;;;0.40;0.40;;;;;;;;;;5066001;28;20243;-69
2022/01/13 16:49:13;;;;;;;0.20;0.20;;;;;;;;;;5063541;28;20202;-71
2022/01/13 16:51:41;;;;;;;0.33;0.33;;;;;;;;;;5065690;28;20203;-69
2022/01/13 16:54:09;;;;;;;0.03;0.03;;;;;;;;;;5061809;28;20580;-73
2022/01/13 16:56:36;;;;;;;0.40;0.40;;;;;;;;;;5065089;28;20484;-72
2022/01/13 16:59:04;;;;;;;0.13;0.13;;;;;;;;;;5055345;28;20555;-71
2022/01/13 17:01:31;;;;;;;0.00;0.00;;;;;;;;;;5062134;28;20695;-71
2022/01/13 17:03:58;;;;;;;0.90;0.90;;;;;;;;;;5066003;28;20203;-75
2022/01/13 17:06:26;;;;;;;0.00;0.00;;;;;;;;;;5066223;28;20211;-70
2022/01/13 17:08:55;;;;;;;1.10;1.00;;;;;;;;;;5069996;28;20195;-72
2022/01/13 17:11:22;;;;;;;0.10;0.10;;;;;;;;;;5061241;28;20209;-70
2022/01/13 17:13:50;;;;;;;0.23;0.23;;;;;;;;;;5065843;28;20317;-70
2022/01/13 17:16:18;;;;;;;0.00;0.00;;;;;;;;;;5065754;28;21509;-72
2022/01/13 17:18:45;;;;;;;0.10;0.10;;;;;;;;;;5066540;28;20227;-70
2022/01/13 17:21:13;;;;;;;0.13;0.13;;;;;;;;;;5064463;28;20199;-73
2022/01/13 17:23:40;;;;;;;0.00;0.00;;;;;;;;;;5065182;28;20253;-70
2022/01/13 17:26:09;;;;;;;1.37;0.87;;;;;;;;;;5068916;28;20470;-69
2022/01/13 17:28:37;;;;;;;0.00;0.00;;;;;;;;;;5067199;28;20206;-71
2022/01/13 17:31:05;;;;;;;0.00;0.00;;;;;;;;;;5059809;28;20197;-65
2022/01/13 17:33:32;;;;;;;0.17;0.17;;;;;;;;;;5067514;28;20195;-70
2022/01/13 17:36:00;;;;;;;0.37;0.37;;;;;;;;;;5066151;28;20223;-67
2022/01/13 17:38:29;;;;;;;2.30;1.43;;;;;;;;;;5051218;28;20203;-69
2022/01/13 17:40:56;;;;;;;0.00;0.00;;;;;;;;;;5055093;28;20202;-70
2022/01/13 17:43:27;;;;;;;0.20;0.20;;;;;;;;;;5062598;28;20256;-69
2022/01/13 17:45:54;;;;;;;0.00;0.00;;;;;;;;;;5061510;28;20575;-69
2022/01/13 17:48:23;;;;;;;1.07;1.07;;;;;;;;;;5052097;28;20215;-68
2022/01/13 17:50:50;;;;;;;1.03;1.03;;;;;;;;;;5060806;28;20199;-68
2022/01/13 17:53:18;;;;;;;0.17;0.17;;;;;;;;;;5060009;28;20217;-69
2022/01/13 17:55:46;;;;;;;0.07;0.07;;;;;;;;;;5063122;28;20232;-69
2022/01/13 17:58:15;;;;;;;0.00;0.00;;;;;;;;;;5068805;28;20660;-69
2022/01/13 18:00:44;;;;;;;0.57;0.57;;;;;;;;;;5057066;28;20206;-69
2022/01/13 18:03:12;;;;;;;0.20;0.20;;;;;;;;;;5075386;28;20225;-68
2022/01/13 18:05:39;;;;;;;0.43;0.43;;;;;;;;;;5067497;28;20199;-69
2022/01/13 18:08:07;;;;;;;3.03;2.93;;;;;;;;;;5070743;28;20719;-69
2022/01/13 18:10:34;;;;;;;0.10;0.10;;;;;;;;;;5066987;28;20202;-69
2022/01/13 18:13:03;;;;;;;0.00;0.00;;;;;;;;;;5066795;28;20579;-69
2022/01/13 18:15:31;;;;;;;0.00;0.00;;;;;;;;;;5054520;28;20315;-69
2022/01/13 18:18:00;;;;;;;0.00;0.00;;;;;;;;;;5051122;28;20728;-70
2022/01/13 18:20:27;;;;;;;0.50;0.50;;;;;;;;;;5070041;28;20208;-70
2022/01/13 18:22:55;;;;;;;0.00;0.00;;;;;;;;;;5060920;28;20628;-69
2022/01/13 18:25:22;;;;;;;0.93;0.93;;;;;;;;;;5061899;28;20200;-68
2022/01/13 18:27:49;;;;;;;0.53;0.53;;;;;;;;;;5062486;28;20201;-68
2022/01/13 18:30:17;;;;;;;0.17;0.17;;;;;;;;;;5058629;28;20660;-68
2022/01/13 18:32:44;;;;;;;2.43;2.17;;;;;;;;;;5065031;28;20690;-68
2022/01/13 18:35:15;;;;;;;1.57;0.60;;;;;;;;;;5062953;28;20216;-69
2022/01/13 18:37:43;;;;;;;1.53;0.73;;;;;;;;;;5061763;28;20198;-69
2022/01/13 18:40:10;;;;;;;7.30;2.83;;;;;;;;;;5069222;28;20659;-69
2022/01/13 18:42:41;;;;;;;1.83;1.10;;;;;;;;;;5067922;28;20199;-66
2022/01/13 18:45:10;;;;;;;0.30;0.30;;;;;;;;;;5066521;28;20926;-69
2022/01/13 18:47:38;;;;;;;0.53;0.53;;;;;;;;;;5057141;28;20203;-67
2022/01/13 18:50:06;;;;;;;1.03;1.03;;;;;;;;;;5057894;28;20734;-69
2022/01/13 18:52:35;;;;;;;0.00;0.00;;;;;;;;;;5054210;28;20192;-66
2022/01/13 18:55:02;;;;;;;1.87;1.77;;;;;;;;;;5058112;28;20262;-69
2022/01/13 18:57:29;;;;;;;1.70;1.60;;;;;;;;;;5067630;28;20198;-66
2022/01/13 18:59:57;;;;;;;1.33;1.33;;;;;;;;;;5068141;28;20191;-67
2022/01/13 19:02:24;;;;;;;3.30;2.40;;;;;;;;;;5056854;28;20285;-68
2022/01/13 19:04:51;;;;;;;2.43;1.63;;;;;;;;;;5059392;28;20210;-68
